This is the latest recevied weather packets stored in our database for station/object VK3ABC-13. If no packets are shown the sender has not sent any weather packets the latest 10 day(s).
| Time | Temp. | Humidity | Pressure | Rain* | Wind** | Luminosity | Snow |
|---|---|---|---|---|---|---|---|
| 1777376711 | 15° C | 83% | 1022.3 hPa | 0 mm | - | 0 W/m² | - |
| 1777374911 | 15° C | 83% | 1021.9 hPa | 0 mm | - | 0 W/m² | - |
| 1777372813 | 15.56° C | 81% | 1021.2 hPa | 0 mm | - | 0 W/m² | - |
| 1777363812 | 18.89° C | 68% | 1019.8 hPa | 0 mm | - | 0 W/m² | - |
| 1777360212 | 21.67° C | 60% | 1019.5 hPa | 0 mm | - | 19 W/m² | - |
| 1777359613 | 22.22° C | 59% | 1019.5 hPa | 0 mm | - | 28 W/m² | - |
| 1777356612 | 24.44° C | 50% | 1019.3 hPa | 0 mm | - | 46 W/m² | - |
| 1777353012 | 24.44° C | 52% | 1019.6 hPa | 0 mm | - | 60 W/m² | - |
| 1777352413 | 24.44° C | 51% | 1019.6 hPa | 0 mm | - | 102 W/m² | - |
| 1777352111 | 24.44° C | 50% | 1019.6 hPa | 0 mm | - | 111 W/m² | - |
| 1777351812 | 24.44° C | 51% | 1019.6 hPa | 0 mm | - | 123 W/m² | - |
| 1777351212 | 24.44° C | 51% | 1019.6 hPa | 0 mm | - | 130 W/m² | - |
| 1777349412 | 23.89° C | 56% | 1019.5 hPa | 0 mm | - | 100 W/m² | - |
| 1777348813 | 24.44° C | 55% | 1019.6 hPa | 0 mm | - | 148 W/m² | - |
| 1777348212 | 24.44° C | 54% | 1019.7 hPa | 0 mm | - | 70 W/m² | - |
| 1777347311 | 25° C | 50% | 1019.6 hPa | 0 mm | - | 97 W/m² | - |
| 1777345213 | 25.56° C | 50% | 1020.1 hPa | 0 mm | - | 577 W/m² | - |
| 1777341011 | 22.22° C | 68% | 1021.3 hPa | 0 mm | - | 529 W/m² | - |
| 1777335310 | 16.11° C | 91% | 1021.9 hPa | 0 mm | - | 432 W/m² | - |
| 1777335011 | 16.11° C | 92% | 1021.9 hPa | 0 mm | - | 436 W/m² | - |
| 1777334710 | 15.56° C | 92% | 1021.9 hPa | 0 mm | - | 420 W/m² | - |
| 1777333812 | 15° C | 93% | 1022 hPa | 0 mm | - | 394 W/m² | - |
| 1777329311 | 11.11° C | 94% | 1022.2 hPa | 0 mm | - | 176 W/m² | - |
| 1777326611 | 8.33° C | 93% | 1021.9 hPa | 0 mm | - | 40 W/m² | - |
| 1777325411 | 7.78° C | 92% | 1021.8 hPa | 0 mm | - | 32 W/m² | - |
* Rain latest hour (hover to see other rain measurements)
** Current wind speed in m/s (hover to see current wind gust speed)